sensor_id;sensor_type;location;lat;lon;timestamp;P1;durP1;ratioP1;P2;durP2;ratioP2
69188;SDS011;56302;52.322;5.926;2023-03-14T00:01:21;8.73;;;3.08;;
69188;SDS011;56302;52.322;5.926;2023-03-14T00:03:48;14.02;;;3.28;;
69188;SDS011;56302;52.322;5.926;2023-03-14T00:06:13;12.63;;;2.57;;
69188;SDS011;56302;52.322;5.926;2023-03-14T00:08:40;10.93;;;2.53;;
69188;SDS011;56302;52.322;5.926;2023-03-14T00:11:11;11.30;;;2.85;;
69188;SDS011;56302;52.322;5.926;2023-03-14T00:13:41;12.05;;;3.75;;
69188;SDS011;56302;52.322;5.926;2023-03-14T00:16:08;14.18;;;3.80;;
69188;SDS011;56302;52.322;5.926;2023-03-14T00:18:36;10.07;;;3.05;;
69188;SDS011;56302;52.322;5.926;2023-03-14T00:21:02;13.52;;;3.60;;
69188;SDS011;56302;52.322;5.926;2023-03-14T00:23:30;10.77;;;2.50;;
69188;SDS011;56302;52.322;5.926;2023-03-14T00:26:00;14.40;;;3.38;;
69188;SDS011;56302;52.322;5.926;2023-03-14T00:28:26;10.90;;;4.10;;
69188;SDS011;56302;52.322;5.926;2023-03-14T00:30:52;11.27;;;3.22;;
69188;SDS011;56302;52.322;5.926;2023-03-14T00:33:18;6.87;;;3.10;;
69188;SDS011;56302;52.322;5.926;2023-03-14T00:35:43;10.63;;;2.92;;
69188;SDS011;56302;52.322;5.926;2023-03-14T00:38:20;11.65;;;3.45;;
69188;SDS011;56302;52.322;5.926;2023-03-14T00:40:46;13.85;;;3.67;;
69188;SDS011;56302;52.322;5.926;2023-03-14T00:43:11;10.63;;;3.17;;
69188;SDS011;56302;52.322;5.926;2023-03-14T00:45:37;16.88;;;3.83;;
69188;SDS011;56302;52.322;5.926;2023-03-14T00:48:02;14.50;;;3.80;;
69188;SDS011;56302;52.322;5.926;2023-03-14T00:50:28;10.77;;;2.75;;
69188;SDS011;56302;52.322;5.926;2023-03-14T00:52:53;15.27;;;4.30;;
69188;SDS011;56302;52.322;5.926;2023-03-14T00:55:19;15.97;;;4.10;;
69188;SDS011;56302;52.322;5.926;2023-03-14T00:57:45;13.68;;;3.90;;
69188;SDS011;56302;52.322;5.926;2023-03-14T01:00:11;11.67;;;3.33;;
69188;SDS011;56302;52.322;5.926;2023-03-14T01:02:37;14.50;;;3.55;;
69188;SDS011;56302;52.322;5.926;2023-03-14T01:05:03;10.53;;;3.00;;
69188;SDS011;56302;52.322;5.926;2023-03-14T01:07:29;15.73;;;3.30;;
69188;SDS011;56302;52.322;5.926;2023-03-14T01:09:54;13.43;;;2.93;;
69188;SDS011;56302;52.322;5.926;2023-03-14T01:12:20;11.18;;;2.63;;
69188;SDS011;56302;52.322;5.926;2023-03-14T01:14:45;9.23;;;2.50;;
69188;SDS011;56302;52.322;5.926;2023-03-14T01:17:11;12.67;;;2.30;;
69188;SDS011;56302;52.322;5.926;2023-03-14T01:19:37;14.77;;;2.72;;
69188;SDS011;56302;52.322;5.926;2023-03-14T01:22:02;12.07;;;2.43;;
69188;SDS011;56302;52.322;5.926;2023-03-14T01:24:28;12.15;;;2.08;;
69188;SDS011;56302;52.322;5.926;2023-03-14T01:26:54;12.07;;;2.37;;
69188;SDS011;56302;52.322;5.926;2023-03-14T01:29:19;14.00;;;2.97;;
69188;SDS011;56302;52.322;5.926;2023-03-14T01:31:45;13.30;;;2.90;;
69188;SDS011;56302;52.322;5.926;2023-03-14T01:34:10;12.23;;;2.70;;
69188;SDS011;56302;52.322;5.926;2023-03-14T01:36:36;13.15;;;2.45;;
69188;SDS011;56302;52.322;5.926;2023-03-14T01:39:02;12.45;;;2.40;;
69188;SDS011;56302;52.322;5.926;2023-03-14T01:41:28;11.77;;;2.05;;
69188;SDS011;56302;52.322;5.926;2023-03-14T01:43:53;13.90;;;3.00;;
69188;SDS011;56302;52.322;5.926;2023-03-14T01:48:52;8.90;;;1.90;;
69188;SDS011;56302;52.322;5.926;2023-03-14T01:51:27;9.90;;;2.30;;
69188;SDS011;56302;52.322;5.926;2023-03-14T01:54:01;10.52;;;2.50;;
69188;SDS011;56302;52.322;5.926;2023-03-14T01:56:31;10.73;;;2.00;;
69188;SDS011;56302;52.322;5.926;2023-03-14T01:58:58;8.52;;;1.95;;
69188;SDS011;56302;52.322;5.926;2023-03-14T02:01:25;8.73;;;2.22;;
69188;SDS011;56302;52.322;5.926;2023-03-14T02:03:54;8.80;;;1.98;;
69188;SDS011;56302;52.322;5.926;2023-03-14T02:06:23;9.65;;;2.20;;
69188;SDS011;56302;52.322;5.926;2023-03-14T02:08:52;9.37;;;1.90;;
69188;SDS011;56302;52.322;5.926;2023-03-14T02:11:17;7.03;;;1.80;;
69188;SDS011;56302;52.322;5.926;2023-03-14T02:13:43;7.05;;;2.25;;
69188;SDS011;56302;52.322;5.926;2023-03-14T02:16:09;6.70;;;1.67;;
69188;SDS011;56302;52.322;5.926;2023-03-14T02:18:35;6.97;;;1.52;;
69188;SDS011;56302;52.322;5.926;2023-03-14T02:23:53;7.03;;;1.77;;
69188;SDS011;56302;52.322;5.926;2023-03-14T02:26:35;12.98;;;2.00;;
69188;SDS011;56302;52.322;5.926;2023-03-14T02:29:05;7.63;;;1.90;;
69188;SDS011;56302;52.322;5.926;2023-03-14T02:31:31;9.55;;;1.80;;
69188;SDS011;56302;52.322;5.926;2023-03-14T02:33:57;12.53;;;1.73;;
69188;SDS011;56302;52.322;5.926;2023-03-14T02:36:24;9.82;;;1.60;;
69188;SDS011;56302;52.322;5.926;2023-03-14T02:38:56;7.65;;;2.00;;
69188;SDS011;56302;52.322;5.926;2023-03-14T02:41:33;8.35;;;1.60;;
69188;SDS011;56302;52.322;5.926;2023-03-14T02:43:59;8.97;;;1.70;;
69188;SDS011;56302;52.322;5.926;2023-03-14T02:46:24;8.30;;;2.30;;
69188;SDS011;56302;52.322;5.926;2023-03-14T02:48:55;8.90;;;2.00;;
69188;SDS011;56302;52.322;5.926;2023-03-14T02:51:26;8.68;;;1.90;;
69188;SDS011;56302;52.322;5.926;2023-03-14T02:53:53;6.88;;;1.60;;
69188;SDS011;56302;52.322;5.926;2023-03-14T02:56:19;9.07;;;2.00;;
69188;SDS011;56302;52.322;5.926;2023-03-14T02:58:45;6.87;;;1.70;;
69188;SDS011;56302;52.322;5.926;2023-03-14T03:01:10;6.27;;;1.80;;
69188;SDS011;56302;52.322;5.926;2023-03-14T03:03:36;5.28;;;1.80;;
69188;SDS011;56302;52.322;5.926;2023-03-14T03:06:01;9.90;;;2.30;;
69188;SDS011;56302;52.322;5.926;2023-03-14T03:08:28;5.50;;;2.00;;
69188;SDS011;56302;52.322;5.926;2023-03-14T03:10:54;7.63;;;1.97;;
69188;SDS011;56302;52.322;5.926;2023-03-14T03:13:19;9.15;;;2.67;;
69188;SDS011;56302;52.322;5.926;2023-03-14T03:15:45;10.85;;;2.67;;
69188;SDS011;56302;52.322;5.926;2023-03-14T03:18:11;9.90;;;2.23;;
69188;SDS011;56302;52.322;5.926;2023-03-14T03:20:37;9.95;;;2.28;;
69188;SDS011;56302;52.322;5.926;2023-03-14T03:23:02;8.20;;;2.10;;
69188;SDS011;56302;52.322;5.926;2023-03-14T03:25:28;8.07;;;2.53;;
69188;SDS011;56302;52.322;5.926;2023-03-14T03:27:54;10.03;;;2.80;;
69188;SDS011;56302;52.322;5.926;2023-03-14T03:30:19;7.60;;;2.80;;
69188;SDS011;56302;52.322;5.926;2023-03-14T03:32:45;9.30;;;2.83;;
69188;SDS011;56302;52.322;5.926;2023-03-14T03:35:11;8.45;;;2.58;;
69188;SDS011;56302;52.322;5.926;2023-03-14T03:37:37;8.30;;;3.00;;
69188;SDS011;56302;52.322;5.926;2023-03-14T03:40:03;10.43;;;2.58;;
69188;SDS011;56302;52.322;5.926;2023-03-14T03:42:32;9.35;;;2.53;;
69188;SDS011;56302;52.322;5.926;2023-03-14T03:44:59;9.52;;;3.00;;
69188;SDS011;56302;52.322;5.926;2023-03-14T03:47:24;8.87;;;2.47;;
69188;SDS011;56302;52.322;5.926;2023-03-14T03:49:50;12.27;;;3.17;;
69188;SDS011;56302;52.322;5.926;2023-03-14T03:52:16;8.20;;;2.80;;
69188;SDS011;56302;52.322;5.926;2023-03-14T03:54:41;9.52;;;2.25;;
69188;SDS011;56302;52.322;5.926;2023-03-14T03:57:07;7.38;;;2.05;;
69188;SDS011;56302;52.322;5.926;2023-03-14T03:59:32;7.30;;;2.30;;
69188;SDS011;56302;52.322;5.926;2023-03-14T04:01:58;11.43;;;2.60;;
69188;SDS011;56302;52.322;5.926;2023-03-14T04:04:23;10.15;;;2.55;;
69188;SDS011;56302;52.322;5.926;2023-03-14T04:06:49;9.30;;;2.57;;
69188;SDS011;56302;52.322;5.926;2023-03-14T04:09:14;10.13;;;2.73;;
69188;SDS011;56302;52.322;5.926;2023-03-14T04:11:40;14.48;;;2.47;;
69188;SDS011;56302;52.322;5.926;2023-03-14T04:14:06;7.27;;;2.40;;
69188;SDS011;56302;52.322;5.926;2023-03-14T04:16:32;10.32;;;3.15;;
69188;SDS011;56302;52.322;5.926;2023-03-14T04:18:57;9.60;;;3.00;;
69188;SDS011;56302;52.322;5.926;2023-03-14T04:21:23;8.15;;;2.42;;
69188;SDS011;56302;52.322;5.926;2023-03-14T04:23:49;11.27;;;2.57;;
69188;SDS011;56302;52.322;5.926;2023-03-14T04:26:14;9.45;;;2.40;;
69188;SDS011;56302;52.322;5.926;2023-03-14T04:28:40;8.87;;;2.37;;
69188;SDS011;56302;52.322;5.926;2023-03-14T04:31:09;11.60;;;2.50;;
69188;SDS011;56302;52.322;5.926;2023-03-14T04:33:37;5.75;;;2.00;;
69188;SDS011;56302;52.322;5.926;2023-03-14T04:36:03;9.23;;;2.60;;
69188;SDS011;56302;52.322;5.926;2023-03-14T04:38:29;6.18;;;1.95;;
69188;SDS011;56302;52.322;5.926;2023-03-14T04:40:55;7.53;;;2.10;;
69188;SDS011;56302;52.322;5.926;2023-03-14T04:43:21;13.43;;;1.73;;
69188;SDS011;56302;52.322;5.926;2023-03-14T04:45:46;8.80;;;1.97;;
69188;SDS011;56302;52.322;5.926;2023-03-14T04:48:12;7.57;;;2.00;;
69188;SDS011;56302;52.322;5.926;2023-03-14T04:50:38;9.55;;;2.10;;
69188;SDS011;56302;52.322;5.926;2023-03-14T04:53:03;9.77;;;2.20;;
69188;SDS011;56302;52.322;5.926;2023-03-14T04:55:30;10.85;;;1.77;;
69188;SDS011;56302;52.322;5.926;2023-03-14T04:57:57;13.75;;;2.90;;
69188;SDS011;56302;52.322;5.926;2023-03-14T05:00:23;12.07;;;1.92;;
69188;SDS011;56302;52.322;5.926;2023-03-14T05:02:48;8.48;;;2.05;;
69188;SDS011;56302;52.322;5.926;2023-03-14T05:05:14;6.87;;;2.27;;
69188;SDS011;56302;52.322;5.926;2023-03-14T05:07:39;10.10;;;2.07;;
69188;SDS011;56302;52.322;5.926;2023-03-14T05:10:05;12.70;;;2.67;;
69188;SDS011;56302;52.322;5.926;2023-03-14T05:12:31;9.53;;;2.57;;
69188;SDS011;56302;52.322;5.926;2023-03-14T05:14:56;5.38;;;1.77;;
69188;SDS011;56302;52.322;5.926;2023-03-14T05:17:22;10.70;;;2.13;;
69188;SDS011;56302;52.322;5.926;2023-03-14T05:19:47;8.80;;;2.30;;
69188;SDS011;56302;52.322;5.926;2023-03-14T05:22:13;11.48;;;2.20;;
69188;SDS011;56302;52.322;5.926;2023-03-14T05:24:38;7.90;;;2.57;;
69188;SDS011;56302;52.322;5.926;2023-03-14T05:27:04;11.33;;;2.43;;
69188;SDS011;56302;52.322;5.926;2023-03-14T05:29:30;10.77;;;2.88;;
69188;SDS011;56302;52.322;5.926;2023-03-14T05:31:55;12.80;;;2.23;;
69188;SDS011;56302;52.322;5.926;2023-03-14T05:34:21;9.40;;;2.88;;
69188;SDS011;56302;52.322;5.926;2023-03-14T05:36:46;11.50;;;2.57;;
69188;SDS011;56302;52.322;5.926;2023-03-14T05:39:12;9.97;;;2.60;;
69188;SDS011;56302;52.322;5.926;2023-03-14T05:41:37;12.20;;;2.47;;
69188;SDS011;56302;52.322;5.926;2023-03-14T05:44:03;9.33;;;2.17;;
69188;SDS011;56302;52.322;5.926;2023-03-14T05:46:29;9.33;;;2.70;;
69188;SDS011;56302;52.322;5.926;2023-03-14T05:48:58;12.27;;;3.10;;
69188;SDS011;56302;52.322;5.926;2023-03-14T05:51:23;10.50;;;2.90;;
69188;SDS011;56302;52.322;5.926;2023-03-14T05:53:49;9.07;;;2.97;;
69188;SDS011;56302;52.322;5.926;2023-03-14T05:56:14;11.23;;;2.72;;
69188;SDS011;56302;52.322;5.926;2023-03-14T05:58:40;6.53;;;2.20;;
69188;SDS011;56302;52.322;5.926;2023-03-14T06:01:06;10.07;;;3.03;;
69188;SDS011;56302;52.322;5.926;2023-03-14T06:03:32;11.50;;;2.92;;
69188;SDS011;56302;52.322;5.926;2023-03-14T06:05:58;10.27;;;2.72;;
69188;SDS011;56302;52.322;5.926;2023-03-14T06:08:23;9.17;;;2.63;;
69188;SDS011;56302;52.322;5.926;2023-03-14T06:10:49;9.95;;;3.03;;
69188;SDS011;56302;52.322;5.926;2023-03-14T06:13:16;12.35;;;2.88;;
69188;SDS011;56302;52.322;5.926;2023-03-14T06:15:41;12.40;;;2.97;;
69188;SDS011;56302;52.322;5.926;2023-03-14T06:18:07;11.52;;;3.15;;
69188;SDS011;56302;52.322;5.926;2023-03-14T06:20:35;9.13;;;2.73;;
69188;SDS011;56302;52.322;5.926;2023-03-14T06:23:04;8.63;;;3.50;;
69188;SDS011;56302;52.322;5.926;2023-03-14T06:25:31;13.00;;;3.17;;
69188;SDS011;56302;52.322;5.926;2023-03-14T06:27:57;9.20;;;2.72;;
69188;SDS011;56302;52.322;5.926;2023-03-14T06:30:22;8.67;;;2.90;;
69188;SDS011;56302;52.322;5.926;2023-03-14T06:32:48;8.97;;;3.10;;
69188;SDS011;56302;52.322;5.926;2023-03-14T06:35:13;8.38;;;3.17;;
69188;SDS011;56302;52.322;5.926;2023-03-14T06:37:39;10.00;;;3.07;;
69188;SDS011;56302;52.322;5.926;2023-03-14T06:40:04;9.70;;;3.20;;
69188;SDS011;56302;52.322;5.926;2023-03-14T06:42:32;12.10;;;3.40;;
69188;SDS011;56302;52.322;5.926;2023-03-14T06:44:58;6.85;;;3.00;;
69188;SDS011;56302;52.322;5.926;2023-03-14T06:47:23;9.67;;;3.33;;
69188;SDS011;56302;52.322;5.926;2023-03-14T06:49:49;12.75;;;3.42;;
69188;SDS011;56302;52.322;5.926;2023-03-14T06:52:14;11.73;;;3.67;;
69188;SDS011;56302;52.322;5.926;2023-03-14T06:54:40;10.17;;;3.63;;
69188;SDS011;56302;52.322;5.926;2023-03-14T06:57:05;8.32;;;3.00;;
69188;SDS011;56302;52.322;5.926;2023-03-14T06:59:31;8.63;;;3.20;;
69188;SDS011;56302;52.322;5.926;2023-03-14T07:01:56;8.77;;;2.70;;
69188;SDS011;56302;52.322;5.926;2023-03-14T07:04:22;9.90;;;3.70;;
69188;SDS011;56302;52.322;5.926;2023-03-14T07:06:47;9.93;;;2.83;;
69188;SDS011;56302;52.322;5.926;2023-03-14T07:09:13;5.17;;;1.97;;
69188;SDS011;56302;52.322;5.926;2023-03-14T07:11:39;4.05;;;1.33;;
69188;SDS011;56302;52.322;5.926;2023-03-14T07:14:05;4.40;;;0.90;;
69188;SDS011;56302;52.322;5.926;2023-03-14T07:16:30;2.30;;;0.70;;
69188;SDS011;56302;52.322;5.926;2023-03-14T07:18:58;4.20;;;0.70;;
69188;SDS011;56302;52.322;5.926;2023-03-14T07:21:24;2.60;;;0.70;;
69188;SDS011;56302;52.322;5.926;2023-03-14T07:23:50;2.85;;;0.50;;
69188;SDS011;56302;52.322;5.926;2023-03-14T07:26:15;1.57;;;0.70;;
69188;SDS011;56302;52.322;5.926;2023-03-14T07:28:41;2.08;;;0.60;;
69188;SDS011;56302;52.322;5.926;2023-03-14T07:31:06;2.80;;;0.60;;
69188;SDS011;56302;52.322;5.926;2023-03-14T07:33:32;2.15;;;0.40;;
69188;SDS011;56302;52.322;5.926;2023-03-14T07:35:58;2.80;;;0.70;;
69188;SDS011;56302;52.322;5.926;2023-03-14T07:38:24;3.83;;;0.90;;
69188;SDS011;56302;52.322;5.926;2023-03-14T07:40:49;4.23;;;0.70;;
69188;SDS011;56302;52.322;5.926;2023-03-14T07:43:15;4.73;;;1.13;;
69188;SDS011;56302;52.322;5.926;2023-03-14T07:45:41;2.33;;;0.95;;
69188;SDS011;56302;52.322;5.926;2023-03-14T07:48:06;4.40;;;1.13;;
69188;SDS011;56302;52.322;5.926;2023-03-14T07:50:32;3.63;;;1.20;;
69188;SDS011;56302;52.322;5.926;2023-03-14T07:52:57;4.05;;;0.82;;
69188;SDS011;56302;52.322;5.926;2023-03-14T07:55:23;3.70;;;1.03;;
69188;SDS011;56302;52.322;5.926;2023-03-14T07:57:48;4.03;;;0.83;;
69188;SDS011;56302;52.322;5.926;2023-03-14T08:00:14;2.47;;;0.93;;
69188;SDS011;56302;52.322;5.926;2023-03-14T08:02:40;3.83;;;0.90;;
69188;SDS011;56302;52.322;5.926;2023-03-14T08:05:07;6.63;;;1.60;;
69188;SDS011;56302;52.322;5.926;2023-03-14T08:07:33;9.73;;;1.38;;
69188;SDS011;56302;52.322;5.926;2023-03-14T08:09:58;7.90;;;1.20;;
69188;SDS011;56302;52.322;5.926;2023-03-14T08:12:24;10.83;;;1.30;;
69188;SDS011;56302;52.322;5.926;2023-03-14T08:14:49;4.20;;;1.05;;
69188;SDS011;56302;52.322;5.926;2023-03-14T08:17:15;3.30;;;0.77;;
69188;SDS011;56302;52.322;5.926;2023-03-14T08:19:41;3.87;;;1.00;;
69188;SDS011;56302;52.322;5.926;2023-03-14T08:22:06;2.88;;;0.50;;
69188;SDS011;56302;52.322;5.926;2023-03-14T08:24:32;7.88;;;0.90;;
69188;SDS011;56302;52.322;5.926;2023-03-14T08:26:58;4.95;;;1.00;;
69188;SDS011;56302;52.322;5.926;2023-03-14T08:29:23;6.27;;;0.67;;
69188;SDS011;56302;52.322;5.926;2023-03-14T08:31:49;5.50;;;0.85;;
69188;SDS011;56302;52.322;5.926;2023-03-14T08:34:14;5.23;;;1.03;;
69188;SDS011;56302;52.322;5.926;2023-03-14T08:36:40;2.97;;;0.63;;
69188;SDS011;56302;52.322;5.926;2023-03-14T08:39:06;3.57;;;0.70;;
69188;SDS011;56302;52.322;5.926;2023-03-14T08:41:32;4.03;;;0.90;;
69188;SDS011;56302;52.322;5.926;2023-03-14T08:43:58;3.28;;;0.70;;
69188;SDS011;56302;52.322;5.926;2023-03-14T08:46:24;3.43;;;0.80;;
69188;SDS011;56302;52.322;5.926;2023-03-14T08:48:49;2.30;;;0.80;;
69188;SDS011;56302;52.322;5.926;2023-03-14T08:51:15;5.63;;;0.65;;
69188;SDS011;56302;52.322;5.926;2023-03-14T08:53:40;3.60;;;0.80;;
69188;SDS011;56302;52.322;5.926;2023-03-14T08:56:07;3.30;;;0.80;;
69188;SDS011;56302;52.322;5.926;2023-03-14T08:58:34;3.33;;;0.93;;
69188;SDS011;56302;52.322;5.926;2023-03-14T09:01:02;3.97;;;0.60;;
69188;SDS011;56302;52.322;5.926;2023-03-14T09:03:32;3.72;;;0.60;;
69188;SDS011;56302;52.322;5.926;2023-03-14T09:06:01;3.55;;;0.65;;
69188;SDS011;56302;52.322;5.926;2023-03-14T09:08:28;4.70;;;1.17;;
69188;SDS011;56302;52.322;5.926;2023-03-14T09:10:54;4.10;;;0.50;;
69188;SDS011;56302;52.322;5.926;2023-03-14T09:13:19;4.90;;;0.80;;
69188;SDS011;56302;52.322;5.926;2023-03-14T09:15:47;2.47;;;0.53;;
69188;SDS011;56302;52.322;5.926;2023-03-14T09:18:18;4.05;;;0.50;;
69188;SDS011;56302;52.322;5.926;2023-03-14T09:20:44;3.55;;;0.70;;
69188;SDS011;56302;52.322;5.926;2023-03-14T09:23:10;3.03;;;0.50;;
69188;SDS011;56302;52.322;5.926;2023-03-14T09:25:35;3.70;;;0.60;;
69188;SDS011;56302;52.322;5.926;2023-03-14T09:28:01;3.92;;;0.65;;
69188;SDS011;56302;52.322;5.926;2023-03-14T09:30:26;4.53;;;0.50;;
69188;SDS011;56302;52.322;5.926;2023-03-14T09:32:52;4.93;;;0.60;;
69188;SDS011;56302;52.322;5.926;2023-03-14T09:35:17;5.60;;;1.20;;
69188;SDS011;56302;52.322;5.926;2023-03-14T09:37:43;5.18;;;0.75;;
69188;SDS011;56302;52.322;5.926;2023-03-14T09:40:12;9.47;;;1.07;;
69188;SDS011;56302;52.322;5.926;2023-03-14T09:42:40;9.02;;;1.05;;
69188;SDS011;56302;52.322;5.926;2023-03-14T09:45:07;7.07;;;0.88;;
69188;SDS011;56302;52.322;5.926;2023-03-14T09:47:54;4.90;;;0.90;;
69188;SDS011;56302;52.322;5.926;2023-03-14T09:50:21;9.07;;;1.23;;
69188;SDS011;56302;52.322;5.926;2023-03-14T09:52:49;12.88;;;1.33;;
69188;SDS011;56302;52.322;5.926;2023-03-14T09:55:21;10.88;;;1.40;;
69188;SDS011;56302;52.322;5.926;2023-03-14T09:57:48;14.10;;;1.27;;
69188;SDS011;56302;52.322;5.926;2023-03-14T10:00:16;12.35;;;1.40;;
69188;SDS011;56302;52.322;5.926;2023-03-14T10:05:49;11.50;;;1.10;;
69188;SDS011;56302;52.322;5.926;2023-03-14T10:08:14;10.38;;;1.33;;
69188;SDS011;56302;52.322;5.926;2023-03-14T10:10:40;10.03;;;1.03;;
69188;SDS011;56302;52.322;5.926;2023-03-14T10:15:53;11.30;;;1.00;;
69188;SDS011;56302;52.322;5.926;2023-03-14T10:18:27;14.48;;;1.85;;
69188;SDS011;56302;52.322;5.926;2023-03-14T10:21:02;8.60;;;1.00;;
69188;SDS011;56302;52.322;5.926;2023-03-14T10:23:31;11.52;;;1.58;;
69188;SDS011;56302;52.322;5.926;2023-03-14T10:26:00;9.50;;;1.20;;
69188;SDS011;56302;52.322;5.926;2023-03-14T10:29:03;13.37;;;1.50;;
69188;SDS011;56302;52.322;5.926;2023-03-14T10:31:45;14.43;;;1.85;;
69188;SDS011;56302;52.322;5.926;2023-03-14T10:34:25;10.38;;;1.17;;
69188;SDS011;56302;52.322;5.926;2023-03-14T10:36:53;10.25;;;1.40;;
69188;SDS011;56302;52.322;5.926;2023-03-14T10:39:45;15.88;;;1.55;;
69188;SDS011;56302;52.322;5.926;2023-03-14T10:42:19;17.00;;;1.57;;
69188;SDS011;56302;52.322;5.926;2023-03-14T10:44:57;14.35;;;1.88;;
69188;SDS011;56302;52.322;5.926;2023-03-14T10:47:25;15.32;;;2.08;;
69188;SDS011;56302;52.322;5.926;2023-03-14T10:49:53;22.60;;;2.08;;
69188;SDS011;56302;52.322;5.926;2023-03-14T10:54:59;15.73;;;1.43;;
69188;SDS011;56302;52.322;5.926;2023-03-14T10:57:27;29.13;;;2.78;;
69188;SDS011;56302;52.322;5.926;2023-03-14T10:59:53;23.90;;;2.40;;
69188;SDS011;56302;52.322;5.926;2023-03-14T11:08:01;23.30;;;1.83;;
69188;SDS011;56302;52.322;5.926;2023-03-14T11:16:03;11.33;;;1.43;;
69188;SDS011;56302;52.322;5.926;2023-03-14T11:32:14;20.25;;;1.90;;
69188;SDS011;56302;52.322;5.926;2023-03-14T11:34:59;13.95;;;1.33;;
69188;SDS011;56302;52.322;5.926;2023-03-14T11:37:34;15.52;;;1.92;;
69188;SDS011;56302;52.322;5.926;2023-03-14T11:40:13;21.50;;;2.35;;
69188;SDS011;56302;52.322;5.926;2023-03-14T11:42:46;15.47;;;1.53;;
69188;SDS011;56302;52.322;5.926;2023-03-14T11:45:19;15.75;;;1.85;;
69188;SDS011;56302;52.322;5.926;2023-03-14T11:48:00;17.40;;;1.90;;
69188;SDS011;56302;52.322;5.926;2023-03-14T11:50:50;14.43;;;1.30;;
69188;SDS011;56302;52.322;5.926;2023-03-14T11:53:22;15.77;;;1.42;;
69188;SDS011;56302;52.322;5.926;2023-03-14T11:56:18;9.30;;;1.23;;
69188;SDS011;56302;52.322;5.926;2023-03-14T11:58:57;7.72;;;1.40;;
69188;SDS011;56302;52.322;5.926;2023-03-14T12:04:17;14.32;;;1.60;;
69188;SDS011;56302;52.322;5.926;2023-03-14T12:06:48;8.60;;;0.80;;
69188;SDS011;56302;52.322;5.926;2023-03-14T12:09:16;14.30;;;1.30;;
69188;SDS011;56302;52.322;5.926;2023-03-14T12:11:54;10.85;;;1.70;;
69188;SDS011;56302;52.322;5.926;2023-03-14T12:14:23;10.23;;;1.52;;
69188;SDS011;56302;52.322;5.926;2023-03-14T12:17:07;7.53;;;1.30;;
69188;SDS011;56302;52.322;5.926;2023-03-14T12:20:04;12.30;;;1.45;;
69188;SDS011;56302;52.322;5.926;2023-03-14T12:22:35;14.40;;;1.20;;
69188;SDS011;56302;52.322;5.926;2023-03-14T12:30:29;10.05;;;1.55;;
69188;SDS011;56302;52.322;5.926;2023-03-14T12:38:02;8.20;;;1.40;;
69188;SDS011;56302;52.322;5.926;2023-03-14T12:43:36;6.63;;;1.17;;
69188;SDS011;56302;52.322;5.926;2023-03-14T12:48:41;7.07;;;0.83;;
69188;SDS011;56302;52.322;5.926;2023-03-14T12:51:15;8.60;;;1.23;;
69188;SDS011;56302;52.322;5.926;2023-03-14T13:01:53;6.17;;;0.90;;
69188;SDS011;56302;52.322;5.926;2023-03-14T13:04:43;5.70;;;1.20;;
69188;SDS011;56302;52.322;5.926;2023-03-14T13:15:43;10.38;;;1.00;;
69188;SDS011;56302;52.322;5.926;2023-03-14T13:18:12;10.80;;;1.20;;
69188;SDS011;56302;52.322;5.926;2023-03-14T13:20:58;7.70;;;1.03;;
69188;SDS011;56302;52.322;5.926;2023-03-14T13:23:29;6.22;;;0.95;;
69188;SDS011;56302;52.322;5.926;2023-03-14T13:25:57;9.52;;;1.15;;
69188;SDS011;56302;52.322;5.926;2023-03-14T13:28:25;10.40;;;1.35;;
69188;SDS011;56302;52.322;5.926;2023-03-14T13:30:56;4.70;;;0.80;;
69188;SDS011;56302;52.322;5.926;2023-03-14T13:33:23;8.27;;;0.83;;
69188;SDS011;56302;52.322;5.926;2023-03-14T13:38:29;10.45;;;0.80;;
69188;SDS011;56302;52.322;5.926;2023-03-14T13:41:03;8.77;;;1.08;;
69188;SDS011;56302;52.322;5.926;2023-03-14T13:43:30;7.43;;;0.80;;
69188;SDS011;56302;52.322;5.926;2023-03-14T13:46:05;5.47;;;0.80;;
69188;SDS011;56302;52.322;5.926;2023-03-14T13:48:41;4.47;;;0.85;;
69188;SDS011;56302;52.322;5.926;2023-03-14T13:51:10;7.47;;;0.90;;
69188;SDS011;56302;52.322;5.926;2023-03-14T13:53:42;5.47;;;0.93;;
69188;SDS011;56302;52.322;5.926;2023-03-14T13:56:09;5.47;;;0.80;;
69188;SDS011;56302;52.322;5.926;2023-03-14T13:58:37;7.80;;;0.98;;
69188;SDS011;56302;52.322;5.926;2023-03-14T14:01:12;6.47;;;0.98;;
69188;SDS011;56302;52.322;5.926;2023-03-14T14:03:40;7.30;;;1.02;;
69188;SDS011;56302;52.322;5.926;2023-03-14T14:06:10;9.80;;;0.80;;
69188;SDS011;56302;52.322;5.926;2023-03-14T14:08:44;7.70;;;1.10;;
69188;SDS011;56302;52.322;5.926;2023-03-14T14:11:11;5.22;;;0.98;;
69188;SDS011;56302;52.322;5.926;2023-03-14T14:13:56;5.75;;;1.38;;
69188;SDS011;56302;52.322;5.926;2023-03-14T14:16:24;4.72;;;0.70;;
69188;SDS011;56302;52.322;5.926;2023-03-14T14:18:51;8.17;;;1.10;;
69188;SDS011;56302;52.322;5.926;2023-03-14T14:21:20;6.22;;;1.02;;
69188;SDS011;56302;52.322;5.926;2023-03-14T14:23:46;6.55;;;1.05;;
69188;SDS011;56302;52.322;5.926;2023-03-14T14:26:14;5.40;;;0.90;;
69188;SDS011;56302;52.322;5.926;2023-03-14T14:28:42;5.03;;;0.77;;
69188;SDS011;56302;52.322;5.926;2023-03-14T14:33:43;7.03;;;1.27;;
69188;SDS011;56302;52.322;5.926;2023-03-14T14:36:15;8.40;;;0.80;;
69188;SDS011;56302;52.322;5.926;2023-03-14T14:39:00;7.50;;;1.00;;
69188;SDS011;56302;52.322;5.926;2023-03-14T14:41:31;5.18;;;0.98;;
69188;SDS011;56302;52.322;5.926;2023-03-14T14:43:59;9.15;;;1.05;;
69188;SDS011;56302;52.322;5.926;2023-03-14T14:46:26;4.93;;;1.00;;
69188;SDS011;56302;52.322;5.926;2023-03-14T14:48:55;11.03;;;1.10;;
69188;SDS011;56302;52.322;5.926;2023-03-14T14:51:26;5.53;;;0.95;;
69188;SDS011;56302;52.322;5.926;2023-03-14T14:54:01;4.55;;;1.17;;
69188;SDS011;56302;52.322;5.926;2023-03-14T14:56:51;9.32;;;1.10;;
69188;SDS011;56302;52.322;5.926;2023-03-14T14:59:25;7.93;;;0.80;;
69188;SDS011;56302;52.322;5.926;2023-03-14T15:01:57;5.67;;;0.70;;
69188;SDS011;56302;52.322;5.926;2023-03-14T15:04:24;5.30;;;0.90;;
69188;SDS011;56302;52.322;5.926;2023-03-14T15:06:50;6.57;;;1.15;;
69188;SDS011;56302;52.322;5.926;2023-03-14T15:09:17;6.85;;;0.90;;
69188;SDS011;56302;52.322;5.926;2023-03-14T15:11:43;8.63;;;1.30;;
69188;SDS011;56302;52.322;5.926;2023-03-14T15:14:09;10.68;;;1.23;;
69188;SDS011;56302;52.322;5.926;2023-03-14T15:16:34;5.90;;;1.10;;
69188;SDS011;56302;52.322;5.926;2023-03-14T15:19:01;8.13;;;1.20;;
69188;SDS011;56302;52.322;5.926;2023-03-14T15:21:30;5.72;;;0.77;;
69188;SDS011;56302;52.322;5.926;2023-03-14T15:23:56;8.85;;;0.88;;
69188;SDS011;56302;52.322;5.926;2023-03-14T15:26:23;6.33;;;1.00;;
69188;SDS011;56302;52.322;5.926;2023-03-14T15:28:50;7.32;;;1.10;;
69188;SDS011;56302;52.322;5.926;2023-03-14T15:31:16;13.02;;;0.98;;
69188;SDS011;56302;52.322;5.926;2023-03-14T15:33:44;6.90;;;1.03;;
69188;SDS011;56302;52.322;5.926;2023-03-14T15:36:29;9.07;;;0.85;;
69188;SDS011;56302;52.322;5.926;2023-03-14T15:38:57;8.75;;;0.80;;
69188;SDS011;56302;52.322;5.926;2023-03-14T15:41:24;11.18;;;1.33;;
69188;SDS011;56302;52.322;5.926;2023-03-14T15:43:50;8.88;;;0.80;;
69188;SDS011;56302;52.322;5.926;2023-03-14T15:46:16;3.67;;;0.70;;
69188;SDS011;56302;52.322;5.926;2023-03-14T15:48:46;3.47;;;0.85;;
69188;SDS011;56302;52.322;5.926;2023-03-14T15:51:13;6.20;;;0.93;;
69188;SDS011;56302;52.322;5.926;2023-03-14T15:53:39;5.22;;;0.85;;
69188;SDS011;56302;52.322;5.926;2023-03-14T15:56:06;2.13;;;0.50;;
69188;SDS011;56302;52.322;5.926;2023-03-14T15:58:35;4.65;;;0.88;;
69188;SDS011;56302;52.322;5.926;2023-03-14T16:01:01;8.27;;;0.90;;
69188;SDS011;56302;52.322;5.926;2023-03-14T16:03:28;3.97;;;1.10;;
69188;SDS011;56302;52.322;5.926;2023-03-14T16:05:54;5.18;;;1.02;;
69188;SDS011;56302;52.322;5.926;2023-03-14T16:08:21;4.10;;;0.70;;